Time;durP1;ratioP1;P1;durP2;ratioP2;P2;SDS_P1;SDS_P2;PMS_P1;PMS_P2;Temp;Humidity;BMP_temperature;BMP_pressure;BME280_temperature;BME280_humidity;BME280_pressure;Samples;Min_cycle;Max_cycle;Signal;HPM_P1;HPM_P2
2023/07/01 00:01:20;;;;;;;10.82;3.92;;;;;;;;;;5015515;28;25081;-61
2023/07/01 00:03:46;;;;;;;8.88;2.92;;;;;;;;;;5016556;28;25115;-62
2023/07/01 00:06:12;;;;;;;11.77;3.40;;;;;;;;;;5022236;28;25104;-62
2023/07/01 00:08:38;;;;;;;9.90;3.20;;;;;;;;;;5021713;28;25051;-64
2023/07/01 00:11:04;;;;;;;9.55;4.10;;;;;;;;;;5027233;28;25114;-63
2023/07/01 00:13:30;;;;;;;6.10;3.22;;;;;;;;;;5025532;28;25056;-61
2023/07/01 00:15:56;;;;;;;15.27;3.55;;;;;;;;;;5020533;28;25074;-61
2023/07/01 00:18:22;;;;;;;6.20;3.40;;;;;;;;;;5024467;28;25076;-62
2023/07/01 00:20:48;;;;;;;9.70;3.20;;;;;;;;;;5028941;28;25057;-62
2023/07/01 00:23:14;;;;;;;7.80;2.67;;;;;;;;;;5018316;28;25071;-62
2023/07/01 00:25:40;;;;;;;10.07;3.60;;;;;;;;;;5026492;28;25072;-62
2023/07/01 00:28:06;;;;;;;9.52;3.70;;;;;;;;;;5020729;28;25067;-62
2023/07/01 00:30:32;;;;;;;8.85;3.38;;;;;;;;;;5025695;28;25055;-65
2023/07/01 00:32:58;;;;;;;9.18;3.42;;;;;;;;;;5020394;28;25071;-64
2023/07/01 00:35:25;;;;;;;9.73;3.45;;;;;;;;;;5023672;28;25086;-63
2023/07/01 00:37:51;;;;;;;4.78;2.50;;;;;;;;;;5024544;28;25077;-62
2023/07/01 00:40:17;;;;;;;10.25;4.72;;;;;;;;;;5025489;28;25075;-62
2023/07/01 00:42:43;;;;;;;9.05;3.25;;;;;;;;;;5021719;28;25098;-62
2023/07/01 00:45:09;;;;;;;5.32;3.47;;;;;;;;;;5023817;28;25062;-63
2023/07/01 00:47:35;;;;;;;6.90;3.10;;;;;;;;;;5017916;28;25095;-62
2023/07/01 00:50:02;;;;;;;4.90;2.83;;;;;;;;;;5012945;28;25062;-61
2023/07/01 00:52:28;;;;;;;7.85;2.97;;;;;;;;;;5022661;28;25133;-61
2023/07/01 00:54:54;;;;;;;8.10;3.10;;;;;;;;;;5017241;28;25059;-63
2023/07/01 00:57:20;;;;;;;10.98;2.85;;;;;;;;;;5023628;28;25048;-62
2023/07/01 00:59:46;;;;;;;5.65;2.60;;;;;;;;;;5019941;28;25134;-63
2023/07/01 01:02:19;;;;;;;7.68;3.30;;;;;;;;;;5025261;28;25066;-65
2023/07/01 01:04:58;;;;;;;4.68;2.75;;;;;;;;;;5022492;28;25078;-58
2023/07/01 01:07:26;;;;;;;8.80;3.38;;;;;;;;;;5010378;28;25123;-62
2023/07/01 01:09:56;;;;;;;8.95;3.35;;;;;;;;;;5018929;28;24861;-61
2023/07/01 01:12:23;;;;;;;9.95;3.83;;;;;;;;;;5026698;28;25129;-62
2023/07/01 01:14:51;;;;;;;4.07;2.70;;;;;;;;;;5017194;28;25070;-62
2023/07/01 01:17:17;;;;;;;7.80;3.40;;;;;;;;;;5020632;28;25061;-61
2023/07/01 01:19:50;;;;;;;9.60;3.00;;;;;;;;;;5013490;28;25176;-62
2023/07/01 01:22:18;;;;;;;7.85;3.25;;;;;;;;;;5018335;28;25083;-63
2023/07/01 01:24:47;;;;;;;12.25;3.58;;;;;;;;;;5018898;28;25052;-62
2023/07/01 01:27:15;;;;;;;6.50;3.13;;;;;;;;;;5015857;28;25088;-61
2023/07/01 01:29:42;;;;;;;7.93;2.80;;;;;;;;;;5011156;28;25065;-60
2023/07/01 01:32:08;;;;;;;10.82;3.63;;;;;;;;;;5019166;28;25059;-62
2023/07/01 01:34:34;;;;;;;10.90;3.58;;;;;;;;;;5021243;28;25112;-62
2023/07/01 01:37:04;;;;;;;8.52;3.20;;;;;;;;;;5016779;28;25074;-61
2023/07/01 01:39:32;;;;;;;9.38;3.13;;;;;;;;;;5022220;28;25129;-61
2023/07/01 01:42:00;;;;;;;7.95;3.00;;;;;;;;;;5022259;28;25087;-61
2023/07/01 01:44:51;;;;;;;9.82;3.47;;;;;;;;;;5012835;28;25200;-62
2023/07/01 01:47:25;;;;;;;7.13;3.00;;;;;;;;;;5017668;28;25060;-61
2023/07/01 01:49:54;;;;;;;11.02;3.00;;;;;;;;;;5016274;28;25064;-62
2023/07/01 01:52:20;;;;;;;7.28;3.30;;;;;;;;;;5016045;28;25133;-62
2023/07/01 01:54:47;;;;;;;4.22;3.35;;;;;;;;;;5020462;28;25102;-60
2023/07/01 01:57:13;;;;;;;13.77;4.30;;;;;;;;;;5016949;28;25049;-61
2023/07/01 01:59:39;;;;;;;7.15;3.35;;;;;;;;;;5013473;28;25071;-62
2023/07/01 02:02:05;;;;;;;8.63;3.30;;;;;;;;;;5014806;28;25076;-60
2023/07/01 02:04:31;;;;;;;8.32;3.25;;;;;;;;;;5024038;28;25152;-60
2023/07/01 02:06:57;;;;;;;7.00;3.53;;;;;;;;;;5014686;28;25065;-61
2023/07/01 02:09:23;;;;;;;8.25;3.88;;;;;;;;;;5020823;28;25143;-60
2023/07/01 02:11:49;;;;;;;5.68;3.55;;;;;;;;;;5021040;28;25068;-62
2023/07/01 02:14:15;;;;;;;5.95;3.13;;;;;;;;;;5018273;28;25069;-60
2023/07/01 02:16:41;;;;;;;8.82;3.40;;;;;;;;;;5019654;28;25119;-62
2023/07/01 02:19:07;;;;;;;13.88;3.28;;;;;;;;;;5019034;28;25172;-59
2023/07/01 02:21:33;;;;;;;8.50;4.28;;;;;;;;;;5017927;28;25082;-61
2023/07/01 02:23:59;;;;;;;8.27;3.10;;;;;;;;;;5015579;28;25112;-62
2023/07/01 02:26:25;;;;;;;8.15;4.00;;;;;;;;;;5013827;28;25083;-65
2023/07/01 02:28:51;;;;;;;8.15;3.85;;;;;;;;;;5021683;28;25101;-62
2023/07/01 02:31:18;;;;;;;8.23;3.45;;;;;;;;;;5017910;28;25066;-62
2023/07/01 02:33:44;;;;;;;7.25;3.03;;;;;;;;;;5011003;28;25056;-61
2023/07/01 02:36:11;;;;;;;6.13;3.38;;;;;;;;;;5013160;28;25069;-61
2023/07/01 02:38:36;;;;;;;10.95;3.20;;;;;;;;;;5023299;28;25149;-61
2023/07/01 02:41:03;;;;;;;8.93;3.00;;;;;;;;;;5013903;28;25191;-61
2023/07/01 02:43:28;;;;;;;8.00;3.20;;;;;;;;;;5015227;28;25141;-61
2023/07/01 02:45:54;;;;;;;7.75;4.15;;;;;;;;;;5017818;28;25075;-62
2023/07/01 02:48:20;;;;;;;9.77;3.45;;;;;;;;;;5019516;28;25066;-61
2023/07/01 02:50:46;;;;;;;7.70;4.53;;;;;;;;;;5007966;28;25054;-62
2023/07/01 02:53:12;;;;;;;8.23;4.03;;;;;;;;;;5014851;28;25057;-61
2023/07/01 02:55:38;;;;;;;7.15;4.00;;;;;;;;;;5021501;28;25075;-61
2023/07/01 02:58:04;;;;;;;7.15;3.60;;;;;;;;;;5007228;28;25126;-61
2023/07/01 03:00:30;;;;;;;9.18;4.05;;;;;;;;;;5012644;28;25079;-62
2023/07/01 03:03:05;;;;;;;10.13;4.18;;;;;;;;;;5014878;28;25046;-61
2023/07/01 03:05:32;;;;;;;6.72;4.30;;;;;;;;;;5013158;28;25144;-61
2023/07/01 03:07:58;;;;;;;7.53;3.83;;;;;;;;;;5011142;28;25103;-61
2023/07/01 03:10:24;;;;;;;8.82;5.10;;;;;;;;;;5020390;28;25152;-60
2023/07/01 03:12:50;;;;;;;11.30;5.25;;;;;;;;;;5014511;28;25099;-60
2023/07/01 03:15:16;;;;;;;9.18;4.90;;;;;;;;;;5014536;28;25069;-64
2023/07/01 03:17:42;;;;;;;6.03;4.65;;;;;;;;;;5017418;28;25055;-62
2023/07/01 03:20:22;;;;;;;9.70;5.03;;;;;;;;;;5025036;28;25135;-60
2023/07/01 03:22:48;;;;;;;8.85;5.10;;;;;;;;;;5016348;28;25074;-62
2023/07/01 03:25:15;;;;;;;8.88;5.50;;;;;;;;;;5013400;28;25091;-61
2023/07/01 03:27:41;;;;;;;13.15;5.85;;;;;;;;;;5020950;28;25067;-62
2023/07/01 03:30:13;;;;;;;6.70;5.45;;;;;;;;;;5022240;28;25145;-61
2023/07/01 03:32:39;;;;;;;10.02;5.72;;;;;;;;;;5010305;28;25054;-59
2023/07/01 03:35:05;;;;;;;8.68;5.18;;;;;;;;;;5019688;28;25141;-63
2023/07/01 03:37:31;;;;;;;9.23;5.20;;;;;;;;;;5023545;28;25106;-62
2023/07/01 03:39:57;;;;;;;7.80;5.07;;;;;;;;;;5018748;28;25091;-60
2023/07/01 03:42:23;;;;;;;9.10;5.68;;;;;;;;;;5027102;28;25007;-61
2023/07/01 03:44:49;;;;;;;9.20;6.32;;;;;;;;;;5023988;28;25128;-60
2023/07/01 03:47:15;;;;;;;11.55;6.40;;;;;;;;;;5017173;28;25072;-62
2023/07/01 03:49:41;;;;;;;7.68;6.00;;;;;;;;;;5021755;28;25098;-61
2023/07/01 03:52:08;;;;;;;10.77;6.90;;;;;;;;;;5017017;28;25061;-62
2023/07/01 03:54:34;;;;;;;11.55;7.30;;;;;;;;;;5017245;28;25089;-61
2023/07/01 03:57:00;;;;;;;8.75;7.60;;;;;;;;;;5019094;28;25094;-61
2023/07/01 03:59:26;;;;;;;9.27;7.40;;;;;;;;;;5026313;28;25056;-61
2023/07/01 04:01:53;;;;;;;12.15;7.68;;;;;;;;;;5022440;28;25104;-63
2023/07/01 04:04:19;;;;;;;14.60;8.02;;;;;;;;;;5022865;28;25073;-62
2023/07/01 04:06:45;;;;;;;17.58;9.27;;;;;;;;;;5013354;28;25082;-63
2023/07/01 04:09:12;;;;;;;13.60;8.48;;;;;;;;;;5019994;28;25081;-62
2023/07/01 04:11:39;;;;;;;10.68;7.47;;;;;;;;;;5022858;28;25099;-61
2023/07/01 04:14:05;;;;;;;10.75;8.27;;;;;;;;;;5023559;28;25166;-61
2023/07/01 04:16:31;;;;;;;14.10;8.45;;;;;;;;;;5019213;28;25136;-61
2023/07/01 04:18:57;;;;;;;12.15;8.43;;;;;;;;;;5020428;28;25053;-62
2023/07/01 04:21:23;;;;;;;8.93;7.32;;;;;;;;;;5016925;28;25062;-61
2023/07/01 04:23:49;;;;;;;13.90;8.50;;;;;;;;;;5016185;28;25111;-60
2023/07/01 04:26:15;;;;;;;14.93;8.82;;;;;;;;;;5017690;28;25078;-68
2023/07/01 04:28:41;;;;;;;14.27;9.82;;;;;;;;;;5016057;28;25086;-62
2023/07/01 04:31:07;;;;;;;10.45;8.70;;;;;;;;;;5017213;28;25043;-63
2023/07/01 04:33:33;;;;;;;14.88;9.45;;;;;;;;;;5022444;28;25101;-62
2023/07/01 04:35:59;;;;;;;13.75;9.38;;;;;;;;;;5013259;28;25150;-62
2023/07/01 04:38:25;;;;;;;13.40;9.75;;;;;;;;;;5018448;28;25085;-61
2023/07/01 04:40:51;;;;;;;15.98;9.80;;;;;;;;;;5018322;28;25103;-62
2023/07/01 04:43:17;;;;;;;13.43;9.30;;;;;;;;;;5022675;28;25113;-60
2023/07/01 04:45:44;;;;;;;12.07;9.40;;;;;;;;;;5016549;28;25090;-64
2023/07/01 04:48:10;;;;;;;15.95;8.88;;;;;;;;;;5019429;28;25071;-60
2023/07/01 04:50:36;;;;;;;12.48;9.95;;;;;;;;;;5019541;28;25057;-62
2023/07/01 04:53:02;;;;;;;14.38;10.00;;;;;;;;;;5019910;28;25137;-61
2023/07/01 04:55:28;;;;;;;12.85;10.25;;;;;;;;;;5015702;28;25066;-62
2023/07/01 04:57:54;;;;;;;15.95;10.38;;;;;;;;;;5023365;28;25079;-61
2023/07/01 05:00:21;;;;;;;10.40;9.30;;;;;;;;;;5024594;28;25097;-61
2023/07/01 05:02:47;;;;;;;9.23;7.53;;;;;;;;;;5023323;28;25085;-62
2023/07/01 05:05:13;;;;;;;12.93;8.93;;;;;;;;;;5024661;28;25161;-61
2023/07/01 05:07:39;;;;;;;11.30;8.75;;;;;;;;;;5013179;28;25058;-60
2023/07/01 05:10:05;;;;;;;12.55;7.97;;;;;;;;;;5020186;28;25043;-61
2023/07/01 05:12:31;;;;;;;9.43;7.18;;;;;;;;;;5022279;28;25081;-61
2023/07/01 05:14:57;;;;;;;9.32;7.70;;;;;;;;;;5024434;28;25061;-61
2023/07/01 05:17:23;;;;;;;8.43;7.55;;;;;;;;;;5022657;28;25050;-62
2023/07/01 05:19:49;;;;;;;7.60;6.78;;;;;;;;;;5019064;28;25061;-61
2023/07/01 05:22:15;;;;;;;8.10;7.30;;;;;;;;;;5021523;28;25070;-63
2023/07/01 05:24:41;;;;;;;7.43;6.72;;;;;;;;;;5016800;28;25094;-61
2023/07/01 05:27:06;;;;;;;8.80;7.95;;;;;;;;;;5011000;28;25066;-63
2023/07/01 05:29:32;;;;;;;8.00;7.20;;;;;;;;;;5019075;28;25067;-64
2023/07/01 05:31:58;;;;;;;7.88;7.05;;;;;;;;;;5006338;28;25090;-61
2023/07/01 05:34:25;;;;;;;10.27;8.32;;;;;;;;;;5015841;28;25060;-61
2023/07/01 05:36:52;;;;;;;7.85;7.05;;;;;;;;;;5013782;28;25069;-63
2023/07/01 05:39:18;;;;;;;11.07;8.15;;;;;;;;;;5018659;28;25053;-60
2023/07/01 05:41:44;;;;;;;10.10;7.63;;;;;;;;;;5021559;28;25144;-61
2023/07/01 05:44:13;;;;;;;8.68;7.75;;;;;;;;;;5023148;28;25120;-62
2023/07/01 05:46:42;;;;;;;9.27;7.47;;;;;;;;;;5024174;28;25077;-62
2023/07/01 05:49:11;;;;;;;10.05;7.72;;;;;;;;;;5017382;28;25074;-62
2023/07/01 05:51:37;;;;;;;8.25;7.45;;;;;;;;;;5008797;28;25070;-62
2023/07/01 05:54:03;;;;;;;10.10;7.70;;;;;;;;;;5017230;28;25057;-62
2023/07/01 05:56:30;;;;;;;8.30;7.50;;;;;;;;;;5020098;28;25052;-62
2023/07/01 05:58:56;;;;;;;8.32;6.75;;;;;;;;;;5017315;28;25065;-63
2023/07/01 06:01:22;;;;;;;9.10;7.15;;;;;;;;;;5023671;28;25098;-63
2023/07/01 06:03:48;;;;;;;8.82;7.13;;;;;;;;;;5011005;28;25055;-63
2023/07/01 06:06:14;;;;;;;11.52;8.10;;;;;;;;;;5027796;28;25098;-62
2023/07/01 06:08:44;;;;;;;10.43;8.27;;;;;;;;;;5019320;28;25048;-61
2023/07/01 06:11:10;;;;;;;8.60;7.30;;;;;;;;;;5019382;28;25062;-61
2023/07/01 06:13:44;;;;;;;9.68;7.85;;;;;;;;;;5017136;28;25155;-61
2023/07/01 06:16:10;;;;;;;10.20;7.78;;;;;;;;;;5016507;28;25099;-62
2023/07/01 06:18:36;;;;;;;9.40;7.72;;;;;;;;;;5011443;28;25107;-60
2023/07/01 06:21:03;;;;;;;9.60;7.85;;;;;;;;;;5023798;28;25055;-61
2023/07/01 06:23:30;;;;;;;9.50;8.07;;;;;;;;;;5016776;28;25068;-62
2023/07/01 06:25:57;;;;;;;10.43;7.45;;;;;;;;;;5018339;28;25057;-61
2023/07/01 06:28:22;;;;;;;11.30;7.75;;;;;;;;;;5022094;28;25102;-63
2023/07/01 06:30:48;;;;;;;9.95;8.13;;;;;;;;;;5019641;28;25085;-63
2023/07/01 06:33:14;;;;;;;8.88;6.93;;;;;;;;;;5011980;28;25073;-64
2023/07/01 06:35:43;;;;;;;9.70;7.60;;;;;;;;;;5010425;28;25064;-62
2023/07/01 06:38:09;;;;;;;9.68;7.53;;;;;;;;;;5023946;28;25078;-61
2023/07/01 06:40:35;;;;;;;9.15;7.78;;;;;;;;;;5018053;28;25098;-62
2023/07/01 06:43:02;;;;;;;12.88;9.25;;;;;;;;;;5020917;28;25101;-61
2023/07/01 06:45:28;;;;;;;10.93;8.25;;;;;;;;;;5023856;28;25162;-61
2023/07/01 06:47:54;;;;;;;11.85;8.65;;;;;;;;;;5021289;28;25080;-63
2023/07/01 06:50:20;;;;;;;12.23;8.60;;;;;;;;;;5020253;28;25080;-60
2023/07/01 06:52:46;;;;;;;11.43;7.97;;;;;;;;;;5009649;28;25063;-61
2023/07/01 06:55:15;;;;;;;11.13;8.18;;;;;;;;;;5015523;28;25065;-61
2023/07/01 06:57:41;;;;;;;13.35;8.68;;;;;;;;;;5010872;28;25122;-63
2023/07/01 07:00:11;;;;;;;11.98;9.32;;;;;;;;;;5016404;28;25158;-62
2023/07/01 07:02:38;;;;;;;12.35;8.07;;;;;;;;;;5018643;28;25087;-62
2023/07/01 07:05:04;;;;;;;11.90;8.15;;;;;;;;;;5022688;28;25102;-63
2023/07/01 07:07:30;;;;;;;11.60;8.43;;;;;;;;;;5019643;28;25134;-61
2023/07/01 07:09:56;;;;;;;13.10;6.88;;;;;;;;;;5020049;28;25068;-63
2023/07/01 07:12:22;;;;;;;10.07;6.95;;;;;;;;;;5020400;28;25052;-63
2023/07/01 07:14:48;;;;;;;8.57;6.90;;;;;;;;;;5019307;28;25045;-62
2023/07/01 07:17:14;;;;;;;9.32;6.88;;;;;;;;;;5021609;28;25152;-62
2023/07/01 07:19:40;;;;;;;10.98;6.97;;;;;;;;;;5023842;28;25063;-62
2023/07/01 07:22:06;;;;;;;7.75;5.63;;;;;;;;;;5013594;28;25053;-61
2023/07/01 07:24:32;;;;;;;8.52;5.43;;;;;;;;;;5015670;28;25072;-64
2023/07/01 07:27:00;;;;;;;6.53;5.15;;;;;;;;;;5016474;28;25087;-61
2023/07/01 07:29:26;;;;;;;7.55;5.00;;;;;;;;;;5017392;28;25041;-66
2023/07/01 07:31:52;;;;;;;6.10;4.63;;;;;;;;;;5015529;28;25132;-64
2023/07/01 07:34:18;;;;;;;4.85;4.18;;;;;;;;;;5013198;28;25141;-63
2023/07/01 07:36:44;;;;;;;8.40;4.75;;;;;;;;;;5012166;28;25057;-62
2023/07/01 07:39:13;;;;;;;5.63;4.35;;;;;;;;;;5020118;28;25056;-62
2023/07/01 07:41:39;;;;;;;4.90;4.20;;;;;;;;;;5010971;28;25068;-62
2023/07/01 07:44:05;;;;;;;5.15;4.00;;;;;;;;;;5018924;28;25124;-63
2023/07/01 07:46:32;;;;;;;3.60;3.30;;;;;;;;;;5025936;28;25078;-62
2023/07/01 07:48:58;;;;;;;4.10;3.70;;;;;;;;;;5029168;28;25064;-64
2023/07/01 07:51:24;;;;;;;3.55;3.25;;;;;;;;;;5015364;28;25058;-64
2023/07/01 07:53:50;;;;;;;3.53;3.22;;;;;;;;;;5018386;28;25060;-62
2023/07/01 07:56:16;;;;;;;4.65;3.58;;;;;;;;;;5019868;28;25084;-62
2023/07/01 07:58:42;;;;;;;4.10;3.70;;;;;;;;;;5021281;28;25137;-64
2023/07/01 08:01:08;;;;;;;4.60;4.20;;;;;;;;;;5016445;28;25069;-62
2023/07/01 08:03:35;;;;;;;4.57;4.18;;;;;;;;;;5020894;28;25088;-63
2023/07/01 08:06:01;;;;;;;4.90;4.47;;;;;;;;;;5010906;28;25110;-61
2023/07/01 08:08:27;;;;;;;6.18;5.15;;;;;;;;;;5027055;28;25140;-64
2023/07/01 08:10:53;;;;;;;6.18;5.57;;;;;;;;;;5019620;28;25079;-65
2023/07/01 08:13:19;;;;;;;7.18;5.85;;;;;;;;;;5018212;28;25116;-62
2023/07/01 08:15:45;;;;;;;7.10;5.63;;;;;;;;;;5011147;28;25078;-63
2023/07/01 08:18:11;;;;;;;6.63;5.95;;;;;;;;;;5013177;28;25043;-62
2023/07/01 08:20:38;;;;;;;6.60;5.85;;;;;;;;;;5016875;28;25048;-63
2023/07/01 08:23:04;;;;;;;7.10;5.93;;;;;;;;;;5014110;28;25055;-61
2023/07/01 08:25:30;;;;;;;6.78;6.07;;;;;;;;;;5019730;28;25155;-62
2023/07/01 08:27:56;;;;;;;6.75;6.05;;;;;;;;;;5017813;28;25084;-62
2023/07/01 08:30:22;;;;;;;6.97;6.28;;;;;;;;;;5018996;28;25186;-64
2023/07/01 08:32:48;;;;;;;6.75;5.95;;;;;;;;;;5015045;28;25081;-62
2023/07/01 08:35:14;;;;;;;6.28;5.68;;;;;;;;;;5014061;28;25062;-68
2023/07/01 08:37:40;;;;;;;6.53;5.90;;;;;;;;;;5016031;28;25063;-67
2023/07/01 08:40:08;;;;;;;7.95;6.22;;;;;;;;;;5017903;28;25069;-62
2023/07/01 08:42:44;;;;;;;6.68;6.07;;;;;;;;;;5019050;28;25047;-63
2023/07/01 08:45:10;;;;;;;7.00;6.30;;;;;;;;;;5011319;28;25059;-63
2023/07/01 08:47:36;;;;;;;8.48;5.35;;;;;;;;;;5014302;28;25142;-63
2023/07/01 08:50:06;;;;;;;6.38;5.05;;;;;;;;;;5010351;28;25094;-62
2023/07/01 08:52:42;;;;;;;7.15;5.20;;;;;;;;;;5008979;28;25097;-62
2023/07/01 08:55:12;;;;;;;6.68;5.97;;;;;;;;;;5011756;28;25099;-62
2023/07/01 08:57:39;;;;;;;5.93;5.32;;;;;;;;;;5023327;28;25079;-62
2023/07/01 09:00:06;;;;;;;6.70;5.53;;;;;;;;;;5013249;28;25062;-64
2023/07/01 09:02:32;;;;;;;5.13;4.63;;;;;;;;;;5011820;28;25071;-62
2023/07/01 09:04:59;;;;;;;6.70;6.00;;;;;;;;;;5013308;28;25053;-64
2023/07/01 09:07:25;;;;;;;6.82;4.80;;;;;;;;;;5021647;28;25078;-62
2023/07/01 09:09:51;;;;;;;9.75;6.00;;;;;;;;;;5010803;28;25071;-63
2023/07/01 09:12:17;;;;;;;6.55;5.38;;;;;;;;;;5022350;28;25155;-62
2023/07/01 09:14:59;;;;;;;6.18;5.45;;;;;;;;;;5014244;28;25135;-64
2023/07/01 09:17:29;;;;;;;6.40;5.30;;;;;;;;;;5016417;28;25067;-62
2023/07/01 09:19:57;;;;;;;6.65;5.10;;;;;;;;;;5028491;28;25168;-62
2023/07/01 09:22:23;;;;;;;5.88;5.28;;;;;;;;;;5012973;28;25085;-63
2023/07/01 09:24:49;;;;;;;6.75;4.90;;;;;;;;;;5018603;28;25062;-61
2023/07/01 09:27:15;;;;;;;4.90;4.35;;;;;;;;;;5012613;28;25058;-62
2023/07/01 09:29:42;;;;;;;6.20;4.07;;;;;;;;;;5023646;28;25065;-62
2023/07/01 09:32:08;;;;;;;5.53;4.50;;;;;;;;;;5011868;28;25136;-62
2023/07/01 09:34:52;;;;;;;7.50;4.00;;;;;;;;;;5018263;28;25095;-62
2023/07/01 09:37:18;;;;;;;6.55;3.25;;;;;;;;;;5008349;28;25092;-64
2023/07/01 09:39:44;;;;;;;3.75;3.42;;;;;;;;;;5016621;28;25080;-67
2023/07/01 09:42:11;;;;;;;3.60;3.22;;;;;;;;;;5015953;28;25056;-62
2023/07/01 09:44:37;;;;;;;3.60;3.08;;;;;;;;;;5012689;28;25113;-63
2023/07/01 09:47:04;;;;;;;5.90;3.05;;;;;;;;;;5019340;28;25075;-62
2023/07/01 09:49:40;;;;;;;7.55;2.83;;;;;;;;;;5018487;28;25072;-62
2023/07/01 09:52:06;;;;;;;4.93;3.13;;;;;;;;;;5007416;28;25080;-63
2023/07/01 09:54:32;;;;;;;4.70;2.90;;;;;;;;;;5019754;28;25063;-63
2023/07/01 09:56:59;;;;;;;5.57;3.60;;;;;;;;;;5014680;28;25080;-66
2023/07/01 09:59:25;;;;;;;5.57;3.90;;;;;;;;;;5017223;28;25089;-61
2023/07/01 10:01:55;;;;;;;6.30;4.18;;;;;;;;;;5009527;28;25115;-61
2023/07/01 10:04:29;;;;;;;12.77;6.50;;;;;;;;;;5021141;28;25101;-62
2023/07/01 10:06:55;;;;;;;10.43;5.65;;;;;;;;;;5009921;28;25052;-61
2023/07/01 10:09:26;;;;;;;10.60;5.70;;;;;;;;;;5015245;28;25106;-62
2023/07/01 10:11:53;;;;;;;8.13;5.03;;;;;;;;;;5012579;28;25158;-63
2023/07/01 10:14:22;;;;;;;13.50;5.75;;;;;;;;;;5014817;28;25060;-61
2023/07/01 10:16:48;;;;;;;11.35;5.50;;;;;;;;;;5015973;28;25070;-63
2023/07/01 10:19:27;;;;;;;10.07;5.22;;;;;;;;;;5022285;28;25150;-62
2023/07/01 10:21:54;;;;;;;7.18;5.60;;;;;;;;;;5018726;28;25060;-62
2023/07/01 10:24:39;;;;;;;12.23;5.60;;;;;;;;;;5020083;28;25046;-62
2023/07/01 10:27:05;;;;;;;10.32;6.80;;;;;;;;;;5012785;28;25068;-62
2023/07/01 10:29:33;;;;;;;12.13;6.10;;;;;;;;;;5013259;28;25096;-64
2023/07/01 10:32:11;;;;;;;8.82;5.88;;;;;;;;;;5015736;28;25151;-65
2023/07/01 10:34:52;;;;;;;15.07;6.30;;;;;;;;;;5013034;28;25122;-62
2023/07/01 10:37:19;;;;;;;8.63;6.05;;;;;;;;;;5015357;28;25129;-61
2023/07/01 10:39:45;;;;;;;7.05;5.85;;;;;;;;;;5020207;28;25166;-63
2023/07/01 10:42:33;;;;;;;14.02;6.75;;;;;;;;;;5016839;28;25151;-61
2023/07/01 10:45:11;;;;;;;13.82;5.75;;;;;;;;;;5026618;28;25072;-63
2023/07/01 10:47:44;;;;;;;12.30;6.00;;;;;;;;;;5022592;28;25164;-61
2023/07/01 10:50:14;;;;;;;16.27;8.10;;;;;;;;;;5021632;28;25065;-63
2023/07/01 10:53:03;;;;;;;10.63;6.45;;;;;;;;;;5026614;28;25070;-64
2023/07/01 10:55:49;;;;;;;16.70;7.85;;;;;;;;;;5020277;28;25095;-62
2023/07/01 10:58:27;;;;;;;13.30;6.70;;;;;;;;;;5021229;28;25154;-62
2023/07/01 11:00:59;;;;;;;13.52;6.95;;;;;;;;;;5019833;28;25118;-62
2023/07/01 11:03:34;;;;;;;13.35;6.72;;;;;;;;;;5019692;28;25088;-61
2023/07/01 11:06:04;;;;;;;16.50;7.25;;;;;;;;;;5019770;28;25173;-63
2023/07/01 11:08:31;;;;;;;11.52;6.97;;;;;;;;;;5028315;28;25070;-62
2023/07/01 11:10:57;;;;;;;15.95;6.30;;;;;;;;;;5027170;28;25115;-62
2023/07/01 11:13:23;;;;;;;10.27;5.20;;;;;;;;;;5031730;28;25089;-62
2023/07/01 11:16:07;;;;;;;10.48;5.50;;;;;;;;;;5023262;28;25144;-61
2023/07/01 11:19:00;;;;;;;10.65;5.70;;;;;;;;;;5018822;28;25139;-62
2023/07/01 11:21:26;;;;;;;;;;;;;;;;;;5026067;22;25060;-70
2023/07/01 11:24:08;;;;;;;10.00;5.03;;;;;;;;;;5012403;28;25133;-74
2023/07/01 11:26:37;;;;;;;10.90;5.00;;;;;;;;;;4999882;28;25340;-72
2023/07/01 11:29:09;;;;;;;7.65;5.13;;;;;;;;;;4993164;28;25145;-73
2023/07/01 11:31:36;;;;;;;7.60;4.88;;;;;;;;;;4990930;28;25088;-72
2023/07/01 11:34:03;;;;;;;8.10;5.40;;;;;;;;;;4998183;28;25086;-74
2023/07/01 11:36:35;;;;;;;10.20;5.05;;;;;;;;;;4994450;28;25060;-74
2023/07/01 11:39:14;;;;;;;8.65;5.55;;;;;;;;;;4986903;28;25074;-78
2023/07/01 11:41:51;;;;;;;9.45;6.05;;;;;;;;;;4997407;28;25130;-78
2023/07/01 11:44:19;;;;;;;10.30;6.60;;;;;;;;;;4989927;28;25071;-72
2023/07/01 11:46:46;;;;;;;6.68;4.93;;;;;;;;;;4984074;28;25061;-73
2023/07/01 11:49:16;;;;;;;10.32;5.70;;;;;;;;;;4993665;28;25109;-73
2023/07/01 11:51:46;;;;;;;8.50;4.70;;;;;;;;;;4998141;28;25079;-73
2023/07/01 11:54:13;;;;;;;9.75;5.65;;;;;;;;;;4997090;28;25038;-74
2023/07/01 11:56:39;;;;;;;7.18;4.60;;;;;;;;;;5013891;28;25086;-75
2023/07/01 11:59:05;;;;;;;9.35;4.95;;;;;;;;;;4997725;28;25139;-72
2023/07/01 12:01:31;;;;;;;7.15;4.30;;;;;;;;;;5006956;28;25059;-76
2023/07/01 12:03:57;;;;;;;9.63;4.30;;;;;;;;;;5015051;28;25061;-72
2023/07/01 12:06:33;;;;;;;4.80;3.97;;;;;;;;;;5024384;28;25088;-74
2023/07/01 12:09:05;;;;;;;6.97;4.00;;;;;;;;;;5006979;28;25095;-74
2023/07/01 12:11:31;;;;;;;6.93;3.90;;;;;;;;;;4987212;28;25089;-72
2023/07/01 12:13:58;;;;;;;5.57;3.58;;;;;;;;;;4983555;28;25063;-75
2023/07/01 12:16:41;;;;;;;4.40;3.38;;;;;;;;;;4999187;28;25107;-74
2023/07/01 12:19:07;;;;;;;6.30;3.70;;;;;;;;;;5003306;28;25055;-73
2023/07/01 12:21:36;;;;;;;5.07;3.47;;;;;;;;;;5017212;28;25064;-73
2023/07/01 12:24:02;;;;;;;5.43;2.67;;;;;;;;;;5001665;28;25124;-74
2023/07/01 12:26:29;;;;;;;5.05;3.15;;;;;;;;;;5010305;28;25077;-75
2023/07/01 12:28:55;;;;;;;9.52;3.80;;;;;;;;;;5005334;28;25104;-75
2023/07/01 12:31:21;;;;;;;5.00;3.20;;;;;;;;;;5011562;28;25097;-72
2023/07/01 12:33:47;;;;;;;4.78;3.55;;;;;;;;;;5003355;28;25084;-72
2023/07/01 12:36:13;;;;;;;7.55;3.30;;;;;;;;;;4997345;28;25105;-71
2023/07/01 12:38:39;;;;;;;7.15;4.10;;;;;;;;;;5004626;28;25062;-73
2023/07/01 12:41:05;;;;;;;5.70;3.60;;;;;;;;;;4993615;28;25136;-75
2023/07/01 12:43:31;;;;;;;6.40;3.13;;;;;;;;;;4991261;28;25069;-72
2023/07/01 12:45:57;;;;;;;5.82;2.72;;;;;;;;;;5000753;28;25107;-73
2023/07/01 12:48:23;;;;;;;4.93;2.92;;;;;;;;;;4985217;28;25090;-73
2023/07/01 12:50:49;;;;;;;7.38;2.47;;;;;;;;;;5000688;28;25054;-73
2023/07/01 12:53:17;;;;;;;4.15;2.22;;;;;;;;;;4994148;28;25098;-77
2023/07/01 12:55:46;;;;;;;3.28;1.80;;;;;;;;;;4994329;28;25149;-72
2023/07/01 12:58:13;;;;;;;3.58;1.23;;;;;;;;;;5004907;28;25148;-71
2023/07/01 13:00:41;;;;;;;3.28;1.98;;;;;;;;;;5008460;28;25074;-74
2023/07/01 13:03:08;;;;;;;2.95;1.58;;;;;;;;;;5007849;28;25062;-72
2023/07/01 13:05:34;;;;;;;4.05;1.50;;;;;;;;;;5001510;28;25071;-71
2023/07/01 13:08:00;;;;;;;1.20;1.10;;;;;;;;;;4990582;28;25137;-73
2023/07/01 13:10:26;;;;;;;0.98;0.77;;;;;;;;;;5006945;28;25166;-74
2023/07/01 13:12:56;;;;;;;5.53;1.25;;;;;;;;;;5004476;28;25059;-76
2023/07/01 13:15:27;;;;;;;2.33;1.10;;;;;;;;;;5002514;28;25076;-73
2023/07/01 13:17:53;;;;;;;1.38;1.30;;;;;;;;;;5012084;28;25110;-74
2023/07/01 13:20:21;;;;;;;1.95;1.73;;;;;;;;;;4998749;28;25094;-75
2023/07/01 13:22:51;;;;;;;4.13;1.65;;;;;;;;;;5008081;28;25063;-75
2023/07/01 13:25:18;;;;;;;3.83;1.83;;;;;;;;;;5004766;28;25084;-75
2023/07/01 13:27:44;;;;;;;1.98;1.65;;;;;;;;;;5018177;28;25056;-75
2023/07/01 13:30:26;;;;;;;3.25;1.75;;;;;;;;;;5006697;28;25062;-75
2023/07/01 13:32:52;;;;;;;3.00;1.73;;;;;;;;;;5027821;28;25022;-72
2023/07/01 13:35:18;;;;;;;2.88;1.70;;;;;;;;;;5005734;28;25149;-73
2023/07/01 13:37:44;;;;;;;4.25;2.22;;;;;;;;;;5012151;28;25063;-74
2023/07/01 13:40:11;;;;;;;2.47;2.28;;;;;;;;;;5010345;28;25073;-74
2023/07/01 13:42:38;;;;;;;2.45;2.25;;;;;;;;;;5018635;28;25092;-70
2023/07/01 13:45:08;;;;;;;3.03;2.10;;;;;;;;;;5003037;28;25066;-72
2023/07/01 13:47:35;;;;;;;2.38;1.95;;;;;;;;;;4991191;28;25057;-73
2023/07/01 13:50:01;;;;;;;2.97;2.20;;;;;;;;;;4997328;28;25101;-73
2023/07/01 13:52:27;;;;;;;6.63;2.92;;;;;;;;;;5010002;28;25094;-72
2023/07/01 13:54:53;;;;;;;1.92;1.70;;;;;;;;;;5002473;28;25068;-75
2023/07/01 13:57:28;;;;;;;3.65;1.42;;;;;;;;;;4992415;28;25096;-73
2023/07/01 13:59:54;;;;;;;2.03;1.63;;;;;;;;;;4997390;28;25074;-75
2023/07/01 14:02:21;;;;;;;1.33;1.17;;;;;;;;;;4997000;28;25139;-74
2023/07/01 14:04:47;;;;;;;1.90;1.23;;;;;;;;;;4999379;28;25074;-73
2023/07/01 14:07:18;;;;;;;1.42;1.33;;;;;;;;;;5000365;28;25059;-75
2023/07/01 14:09:44;;;;;;;1.88;1.75;;;;;;;;;;5000394;28;25078;-73
2023/07/01 14:12:17;;;;;;;1.63;1.50;;;;;;;;;;4989857;28;25081;-72
2023/07/01 14:14:44;;;;;;;2.00;1.80;;;;;;;;;;4996113;28;25092;-74
2023/07/01 14:17:15;;;;;;;2.58;1.92;;;;;;;;;;4990964;28;25056;-74
2023/07/01 14:19:41;;;;;;;3.15;1.92;;;;;;;;;;4998126;28;25062;-75
2023/07/01 14:22:08;;;;;;;2.08;1.83;;;;;;;;;;4988428;28;25090;-75
2023/07/01 14:24:37;;;;;;;2.13;1.95;;;;;;;;;;4978248;28;25053;-77
2023/07/01 14:27:03;;;;;;;2.33;2.10;;;;;;;;;;4975804;28;25077;-76
2023/07/01 14:29:29;;;;;;;2.78;1.83;;;;;;;;;;5007931;28;25074;-73
2023/07/01 14:31:55;;;;;;;1.77;1.67;;;;;;;;;;5005636;28;25072;-75
2023/07/01 14:34:28;;;;;;;1.98;1.83;;;;;;;;;;4992906;28;25140;-75
2023/07/01 14:36:57;;;;;;;2.00;1.80;;;;;;;;;;4990062;28;25060;-74
2023/07/01 14:39:44;;;;;;;2.28;2.08;;;;;;;;;;4994795;28;25134;-73
2023/07/01 14:42:10;;;;;;;3.05;1.92;;;;;;;;;;4985745;28;25085;-71
2023/07/01 14:44:36;;;;;;;5.00;2.30;;;;;;;;;;5114369;23;25068;-73